Time;durP1;ratioP1;P1;durP2;ratioP2;P2;SDS_P1;SDS_P2;PMS_P1;PMS_P2;Temp;Humidity;BMP_temperature;BMP_pressure;BME280_temperature;BME280_humidity;BME280_pressure;Samples;Min_cycle;Max_cycle;Signal;HPM_P1;HPM_P2
2022/04/16 00:01:27;;;;;;;4.57;3.30;;;;;;;8.05;64.67;95664.74;1795531;80;21464;-69
2022/04/16 00:03:55;;;;;;;5.73;3.80;;;;;;;7.82;66.13;95662.28;1795057;80;20999;-69
2022/04/16 00:06:22;;;;;;;8.97;3.77;;;;;;;7.63;65.98;95665.45;1790444;80;21468;-69
2022/04/16 00:08:48;;;;;;;5.43;3.40;;;;;;;7.44;66.53;95666.02;1795539;80;21003;-69
2022/04/16 00:11:15;;;;;;;3.40;2.80;;;;;;;7.18;68.60;95669.19;1795003;80;21125;-69
2022/04/16 00:13:41;;;;;;;4.90;3.27;;;;;;;7.06;68.57;95662.27;1795492;80;21330;-69
2022/04/16 00:16:09;;;;;;;6.10;2.87;;;;;;;7.06;67.75;95670.13;1795502;80;20999;-69
2022/04/16 00:18:35;;;;;;;5.20;3.63;;;;;;;6.96;68.65;95665.36;1795316;80;20998;-69
2022/04/16 00:21:04;;;;;;;5.07;3.10;;;;;;;6.99;68.34;95660.09;1795795;80;21320;-69
2022/04/16 00:23:30;;;;;;;4.77;3.10;;;;;;;7.05;68.32;95660.50;1795044;80;21023;-69
2022/04/16 00:25:58;;;;;;;5.23;3.33;;;;;;;7.13;67.85;95662.64;1795319;80;21022;-69
2022/04/16 00:28:27;;;;;;;5.10;3.50;;;;;;;7.15;67.91;95656.52;1795519;80;21014;-69
2022/04/16 00:30:55;;;;;;;4.03;3.13;;;;;;;7.21;68.01;95662.64;1795413;80;21045;-69
2022/04/16 00:33:25;;;;;;;5.13;3.10;;;;;;;7.27;68.03;95659.53;1795304;80;21037;-68
2022/04/16 00:35:51;;;;;;;5.73;3.60;;;;;;;7.30;67.96;95659.51;1795418;80;20994;-69
2022/04/16 00:38:18;;;;;;;5.70;4.17;;;;;;;7.32;68.12;95660.38;1795161;80;21022;-69
2022/04/16 00:40:45;;;;;;;5.03;2.60;;;;;;;7.39;67.80;95655.98;1795565;80;21046;-69
2022/04/16 00:43:27;;;;;;;6.87;3.97;;;;;;;7.43;68.35;95657.69;1795469;80;20978;-69
2022/04/16 00:45:55;;;;;;;4.80;3.50;;;;;;;7.43;68.77;95659.00;1795340;80;21025;-69
2022/04/16 00:48:22;;;;;;;3.97;2.90;;;;;;;7.53;69.21;95655.89;1792528;80;21023;-68
2022/04/16 00:50:52;;;;;;;5.23;3.43;;;;;;;7.64;69.14;95650.59;1787121;80;21011;-69
2022/04/16 00:53:20;;;;;;;4.97;3.10;;;;;;;7.74;68.67;95650.52;1786824;80;21082;-69
2022/04/16 00:55:48;;;;;;;8.13;4.03;;;;;;;7.76;68.87;95643.51;1786985;80;21083;-69
2022/04/16 00:58:14;;;;;;;5.37;3.00;;;;;;;7.83;68.94;95644.31;1786868;80;21564;-70
2022/04/16 01:00:41;;;;;;;4.67;3.20;;;;;;;7.85;68.56;95648.26;1786921;80;21102;-70
2022/04/16 01:03:08;;;;;;;7.47;3.13;;;;;;;7.78;68.73;95648.28;1787097;80;20995;-69
2022/04/16 01:05:36;;;;;;;4.90;3.27;;;;;;;7.79;68.54;95640.85;1786849;80;21026;-70
2022/04/16 01:08:05;;;;;;;5.20;3.60;;;;;;;7.86;68.17;95638.17;1780174;80;21007;-69
2022/04/16 01:10:34;;;;;;;8.47;5.00;;;;;;;7.92;68.28;95636.38;1787031;80;21484;-69
2022/04/16 01:13:04;;;;;;;6.27;3.83;;;;;;;8.02;68.11;95627.54;1754173;80;20995;-69
2022/04/16 01:15:30;;;;;;;5.97;3.90;;;;;;;8.10;68.50;95629.23;1787070;80;20987;-69
2022/04/16 01:18:02;;;;;;;6.30;4.40;;;;;;;8.09;69.18;95629.69;1786994;80;21507;-69
2022/04/16 01:20:28;;;;;;;6.83;4.67;;;;;;;8.07;69.22;95624.02;1786906;80;20987;-69
2022/04/16 01:22:56;;;;;;;10.07;5.57;;;;;;;8.07;68.75;95621.38;1787009;80;20983;-69
2022/04/16 01:25:26;;;;;;;7.30;4.80;;;;;;;8.06;68.49;95615.23;1786742;80;21026;-69
2022/04/16 01:27:52;;;;;;;4.90;3.70;;;;;;;8.03;68.33;95617.89;1786825;80;20979;-69
2022/04/16 01:30:21;;;;;;;8.30;4.30;;;;;;;7.97;68.57;95621.45;1786737;80;21027;-69
2022/04/16 01:32:52;;;;;;;8.30;4.93;;;;;;;7.83;68.80;95621.13;1787166;80;20975;-69
2022/04/16 01:35:19;;;;;;;7.70;5.60;;;;;;;7.80;69.67;95624.64;1786819;80;21537;-70
2022/04/16 01:37:46;;;;;;;7.37;4.17;;;;;;;7.74;69.09;95620.77;1787132;80;20991;-70
2022/04/16 01:40:15;;;;;;;8.17;5.27;;;;;;;7.62;70.33;95620.39;1787281;80;21055;-70
2022/04/16 01:42:46;;;;;;;9.13;5.00;;;;;;;7.57;69.59;95619.55;1786902;80;20959;-69
2022/04/16 01:45:17;;;;;;;6.10;4.23;;;;;;;7.54;69.20;95619.59;1786993;80;21018;-70
2022/04/16 01:47:44;;;;;;;14.90;4.53;;;;;;;7.40;69.43;95618.34;1786987;80;20991;-70
2022/04/16 01:50:12;;;;;;;7.10;4.50;;;;;;;7.28;69.32;95616.67;1786551;80;21047;-69
2022/04/16 01:52:41;;;;;;;5.87;4.30;;;;;;;7.19;69.49;95609.29;1787292;80;21014;-69
2022/04/16 01:55:09;;;;;;;7.43;4.47;;;;;;;7.04;69.55;95616.34;1787133;80;21030;-69
2022/04/16 01:57:37;;;;;;;7.57;5.00;;;;;;;6.88;71.26;95619.48;1787151;80;20982;-69
2022/04/16 02:00:14;;;;;;;5.93;4.53;;;;;;;6.77;71.54;95612.52;1787317;80;20991;-69
2022/04/16 02:02:42;;;;;;;7.67;4.87;;;;;;;6.63;71.21;95612.59;1787037;80;21021;-69
2022/04/16 02:05:10;;;;;;;7.90;4.53;;;;;;;6.59;70.92;95617.39;1787183;80;20974;-68
2022/04/16 02:07:39;;;;;;;7.80;4.80;;;;;;;6.48;72.17;95629.22;1787219;80;21006;-69
2022/04/16 02:10:07;;;;;;;6.03;3.73;;;;;;;6.37;71.02;95629.66;1787053;80;20956;-69
2022/04/16 02:12:37;;;;;;;9.43;4.20;;;;;;;6.31;71.65;95617.89;1787226;80;21011;-69
2022/04/16 02:15:06;;;;;;;6.50;4.37;;;;;;;6.22;72.41;95612.22;1787140;80;21508;-70
2022/04/16 02:17:34;;;;;;;4.73;3.30;;;;;;;6.16;73.39;95616.16;1786974;80;21027;-70
2022/04/16 02:20:01;;;;;;;4.10;3.03;;;;;;;6.04;72.31;95616.59;1786757;80;21436;-69
2022/04/16 02:22:38;;;;;;;6.63;3.80;;;;;;;6.06;71.97;95603.52;1787215;80;21464;-70
2022/04/16 02:25:08;;;;;;;11.93;3.60;;;;;;;5.97;72.08;95594.34;1787237;80;20983;-70
2022/04/16 02:27:35;;;;;;;4.67;3.40;;;;;;;5.98;71.90;95591.73;1787132;80;21556;-70
2022/04/16 02:30:06;;;;;;;4.50;3.10;;;;;;;5.98;71.49;95585.19;1787000;80;21292;-69
2022/04/16 02:32:38;;;;;;;4.20;3.13;;;;;;;5.88;71.50;95580.80;1787125;80;21492;-69
2022/04/16 02:35:08;;;;;;;6.03;3.50;;;;;;;5.86;71.63;95584.72;1787150;80;20970;-69
2022/04/16 02:37:36;;;;;;;4.80;4.20;;;;;;;5.87;71.43;95584.27;1786861;80;21030;-69
2022/04/16 02:40:05;;;;;;;6.57;3.67;;;;;;;5.79;72.65;95586.89;1787107;80;21006;-69
2022/04/16 02:42:36;;;;;;;6.67;3.63;;;;;;;5.71;72.50;95586.47;1787267;80;21018;-69
2022/04/16 02:47:52;;;;;;;4.07;2.87;;;;;;;5.62;72.26;95591.28;1787365;80;20960;-72
2022/04/16 02:50:20;;;;;;;5.67;3.20;;;;;;;5.52;71.90;95587.78;1794287;80;21015;-69
2022/04/16 02:52:46;;;;;;;5.40;3.23;;;;;;;5.35;72.40;95589.06;1794996;80;21078;-69
2022/04/16 02:55:17;;;;;;;4.87;3.07;;;;;;;5.34;72.22;95589.95;1795444;80;21453;-70
2022/04/16 02:57:44;;;;;;;6.23;3.10;;;;;;;5.31;72.03;95588.61;1795552;80;21468;-70
2022/04/16 03:00:13;;;;;;;5.90;2.97;;;;;;;5.24;71.73;95587.28;1795209;80;21078;-70
2022/04/16 03:02:41;;;;;;;3.30;2.87;;;;;;;5.17;71.49;95585.98;1795500;80;20990;-70
2022/04/16 03:05:09;;;;;;;5.40;3.00;;;;;;;5.07;71.66;95577.68;1790351;80;21461;-70
2022/04/16 03:07:37;;;;;;;3.97;3.50;;;;;;;5.01;71.72;95572.86;1795541;80;21034;-70
2022/04/16 03:10:06;;;;;;;5.93;3.37;;;;;;;4.97;71.91;95566.31;1795475;80;21045;-70
2022/04/16 03:12:47;;;;;;;5.87;3.43;;;;;;;4.93;72.42;95561.08;1795342;80;20974;-70
2022/04/16 03:18:01;;;;;;;5.70;3.90;;;;;;;4.91;72.56;95558.47;1795771;80;20963;-70
2022/04/16 03:20:29;;;;;;;6.87;3.87;;;;;;;4.84;71.73;95558.42;1794861;80;21006;-70
2022/04/16 03:22:57;;;;;;;4.50;3.23;;;;;;;4.81;71.84;95554.50;1795568;80;20967;-69
2022/04/16 03:25:26;;;;;;;4.67;2.80;;;;;;;4.75;71.14;95563.20;1795508;80;21011;-69
2022/04/16 03:27:52;;;;;;;5.43;2.87;;;;;;;4.67;72.14;95554.47;1795126;80;21010;-70
2022/04/16 03:30:19;;;;;;;4.27;3.30;;;;;;;4.57;72.96;95562.70;1795544;80;21042;-70
2022/04/16 03:32:47;;;;;;;5.67;4.10;;;;;;;4.51;72.49;95563.97;1795327;80;21448;-70
2022/04/16 03:35:14;;;;;;;4.90;3.30;;;;;;;4.52;72.31;95563.98;1795273;80;21485;-70
2022/04/16 03:37:41;;;;;;;6.20;3.70;;;;;;;4.45;73.60;95570.05;1795522;80;20971;-70
2022/04/16 03:40:09;;;;;;;6.60;3.17;;;;;;;4.40;73.00;95564.36;1795264;80;21504;-70
2022/04/16 03:42:46;;;;;;;5.40;3.70;;;;;;;4.32;73.62;95567.80;1796095;80;21026;-70
2022/04/16 03:45:27;;;;;;;4.30;3.30;;;;;;;4.26;75.45;95574.32;1795367;80;21053;-73
2022/04/16 03:47:55;;;;;;;15.93;3.37;;;;;;;4.23;74.21;95576.02;1795168;80;21070;-73
2022/04/16 03:50:24;;;;;;;4.33;3.10;;;;;;;4.25;73.95;95584.75;1795029;80;20999;-73
2022/04/16 03:52:54;;;;;;;4.80;3.43;;;;;;;4.26;74.29;95587.37;1795664;80;20982;-73
2022/04/16 04:01:04;;;;;;;5.00;3.30;;;;;;;4.20;74.81;95589.94;1795390;80;20974;-72
2022/04/16 04:03:31;;;;;;;3.40;2.97;;;;;;;4.22;74.62;95584.30;1795532;80;20981;-72
2022/04/16 04:06:01;;;;;;;5.33;3.30;;;;;;;4.27;74.78;95589.55;1794990;80;21480;-72
2022/04/16 04:08:27;;;;;;;4.67;3.20;;;;;;;4.39;74.77;95587.45;1795308;80;21086;-72
2022/04/16 04:10:55;;;;;;;5.20;4.03;;;;;;;4.54;75.24;95595.36;1795330;80;21499;-72
2022/04/16 04:13:23;;;;;;;4.60;3.40;;;;;;;4.65;74.85;95598.88;1795406;80;20955;-72
2022/04/16 04:15:50;;;;;;;10.67;3.43;;;;;;;4.77;75.29;95600.68;1795165;80;21037;-73
2022/04/16 04:18:16;;;;;;;7.40;3.57;;;;;;;4.78;75.55;95595.44;1795516;80;20970;-73
2022/04/16 04:20:43;;;;;;;6.07;3.63;;;;;;;4.90;75.95;95593.31;1795363;80;20971;-73
2022/04/16 04:23:10;;;;;;;8.93;5.10;;;;;;;4.98;76.06;95589.41;1795228;80;21007;-73
2022/04/16 04:25:36;;;;;;;29.70;18.30;;;;;;;5.11;76.53;95593.80;1795479;80;21034;-73
2022/04/16 04:28:04;;;;;;;12.67;9.17;;;;;;;5.35;76.07;95589.06;1795724;80;20962;-71
2022/04/16 04:30:30;;;;;;;21.27;12.83;;;;;;;5.46;75.43;95582.52;1795226;80;20983;-70
2022/04/16 04:32:58;;;;;;;30.13;18.47;;;;;;;5.59;75.41;95589.54;1795610;80;20990;-70
2022/04/16 04:35:26;;;;;;;28.63;17.80;;;;;;;5.93;75.47;95585.59;1795689;80;21010;-70
2022/04/16 04:37:53;;;;;;;15.90;12.23;;;;;;;6.23;75.13;95583.84;1795363;80;21464;-71
2022/04/16 04:40:20;;;;;;;18.73;12.87;;;;;;;6.48;74.03;95580.28;1795462;80;20963;-70
2022/04/16 04:42:46;;;;;;;15.63;9.80;;;;;;;6.75;73.49;95581.05;1795479;80;20995;-70
2022/04/16 04:45:15;;;;;;;9.70;6.87;;;;;;;6.94;73.66;95573.54;1794951;80;21018;-69
2022/04/16 04:47:42;;;;;;;12.00;6.03;;;;;;;7.13;72.77;95578.69;1795531;80;21471;-69
2022/04/16 04:50:10;;;;;;;13.33;8.57;;;;;;;7.19;72.19;95579.11;1794872;80;21046;-70
2022/04/16 04:52:39;;;;;;;13.27;8.83;;;;;;;7.27;71.17;95579.94;1795513;80;20939;-70
2022/04/16 04:55:12;;;;;;;12.57;8.20;;;;;;;7.31;70.92;95582.98;1795351;80;21101;-70
2022/04/16 04:57:40;;;;;;;;;;;;;;;7.32;71.44;95587.34;1798044;80;20955;-70
2022/04/16 05:00:09;;;;;;;15.73;9.17;;;;;;;7.35;71.67;95589.48;1764173;81;20384;-70
2022/04/16 05:02:43;;;;;;;13.70;9.10;;;;;;;7.41;71.55;95588.60;1795474;80;21492;-71
2022/04/16 05:05:10;;;;;;;15.17;9.93;;;;;;;7.48;71.67;95590.73;1795138;80;21029;-71
2022/04/16 05:07:37;;;;;;;11.77;8.47;;;;;;;7.58;71.78;95589.78;1795109;80;21059;-70
2022/04/16 05:10:05;;;;;;;13.27;9.57;;;;;;;7.59;70.84;95585.84;1795319;80;21039;-70
2022/04/16 05:12:31;;;;;;;13.97;7.97;;;;;;;7.67;70.79;95592.34;1795273;80;21010;-70
2022/04/16 05:14:58;;;;;;;14.13;8.10;;;;;;;7.70;69.59;95591.45;1795667;80;20974;-70
2022/04/16 05:17:24;;;;;;;12.43;7.23;;;;;;;7.73;69.10;95586.17;1795105;80;21050;-70
2022/04/16 05:19:51;;;;;;;13.43;7.60;;;;;;;7.74;68.67;95582.68;1795395;80;20967;-70
2022/04/16 05:22:18;;;;;;;10.33;7.37;;;;;;;7.80;68.86;95589.19;1795180;80;21485;-70
2022/04/16 05:24:45;;;;;;;10.63;8.60;;;;;;;7.89;68.81;95588.26;1795315;80;20987;-70
2022/04/16 05:27:12;;;;;;;13.03;7.70;;;;;;;7.97;68.58;95583.80;1795006;80;21071;-70
2022/04/16 05:30:04;;;;;;;11.13;8.10;;;;;;;8.02;68.14;95579.38;1795589;80;20966;-69
2022/04/16 05:32:29;;;;;;;9.17;7.20;;;;;;;8.06;68.28;95579.75;1794066;80;21010;-69
2022/04/16 05:34:56;;;;;;;10.03;7.87;;;;;;;8.15;68.34;95582.31;1795551;80;21007;-69
2022/04/16 05:37:22;;;;;;;12.80;8.17;;;;;;;8.38;69.53;95587.34;1795425;80;21503;-69
2022/04/16 05:39:49;;;;;;;9.03;6.80;;;;;;;8.58;69.80;95587.16;1795587;80;21029;-69
2022/04/16 05:42:16;;;;;;;11.97;8.17;;;;;;;8.77;70.66;95583.89;1795529;80;21074;-69
2022/04/16 05:44:42;;;;;;;13.67;9.70;;;;;;;8.94;70.24;95583.67;1795639;80;20951;-69
2022/04/16 05:47:09;;;;;;;11.97;9.13;;;;;;;9.08;70.15;95575.61;1795372;80;20987;-70
2022/04/16 05:49:35;;;;;;;31.67;16.27;;;;;;;9.19;69.75;95577.64;1793329;80;21034;-70
2022/04/16 05:52:02;;;;;;;34.70;16.33;;;;;;;9.23;69.45;95586.39;1787108;80;21484;-70
2022/04/16 05:54:29;;;;;;;27.47;14.53;;;;;;;9.38;69.29;95580.91;1787209;80;20952;-70
2022/04/16 05:56:56;;;;;;;22.67;12.53;;;;;;;9.51;69.10;95582.92;1787146;80;20975;-70
2022/04/16 05:59:23;;;;;;;20.37;11.77;;;;;;;9.63;68.95;95587.14;1787239;80;21473;-70
2022/04/16 06:01:50;;;;;;;15.97;10.53;;;;;;;9.64;68.97;95586.23;1787190;80;21007;-69
2022/04/16 06:04:17;;;;;;;15.40;9.93;;;;;;;9.51;70.62;95586.41;1787166;80;20991;-69
2022/04/16 06:06:44;;;;;;;11.67;9.40;;;;;;;9.45;71.24;95585.63;1787264;80;21018;-69
2022/04/16 06:09:13;;;;;;;13.07;9.50;;;;;;;9.42;71.64;95578.63;1786998;80;21025;-69
2022/04/16 06:11:41;;;;;;;13.17;10.10;;;;;;;9.40;72.47;95583.08;1787066;80;21557;-69
2022/04/16 06:14:09;;;;;;;13.50;9.70;;;;;;;9.46;72.63;95578.16;1787171;80;21011;-68
2022/04/16 06:16:36;;;;;;;11.77;10.30;;;;;;;9.55;72.97;95574.09;1787146;80;21484;-69
2022/04/16 06:19:02;;;;;;;12.10;10.07;;;;;;;9.67;72.60;95583.09;1787232;80;21008;-69
2022/04/16 06:21:28;;;;;;;12.37;9.63;;;;;;;9.76;72.74;95582.10;1787164;80;20982;-69
2022/04/16 06:23:55;;;;;;;15.57;11.63;;;;;;;9.90;72.34;95571.33;1787208;80;21421;-69
2022/04/16 06:26:22;;;;;;;13.67;10.37;;;;;;;10.16;71.68;95578.81;1787169;80;20986;-70
2022/04/16 06:28:48;;;;;;;14.13;9.60;;;;;;;10.39;71.23;95575.80;1787317;80;20963;-69
2022/04/16 06:31:14;;;;;;;13.13;9.57;;;;;;;10.53;70.09;95575.11;1786852;80;21031;-69
2022/04/16 06:33:41;;;;;;;11.13;8.30;;;;;;;10.51;70.18;95576.04;1787132;80;20991;-70
2022/04/16 06:36:07;;;;;;;10.47;8.70;;;;;;;10.65;70.22;95577.08;1787132;80;20978;-70
2022/04/16 06:38:34;;;;;;;12.67;8.60;;;;;;;10.81;69.92;95579.41;1787202;80;21492;-69
2022/04/16 06:41:00;;;;;;;10.67;9.20;;;;;;;10.87;70.46;95581.05;1787376;80;20971;-70
2022/04/16 06:43:27;;;;;;;11.60;8.87;;;;;;;10.92;69.78;95581.82;1787200;80;20971;-69
2022/04/16 06:45:53;;;;;;;11.43;8.80;;;;;;;10.96;69.45;95583.51;1787062;80;21078;-69
2022/04/16 06:48:20;;;;;;;11.47;8.83;;;;;;;10.97;69.60;95584.38;1786953;80;21043;-69
2022/04/16 06:50:48;;;;;;;10.07;9.00;;;;;;;11.03;70.26;95588.20;1791773;80;21034;-69
2022/04/16 06:53:15;;;;;;;11.13;8.17;;;;;;;11.01;69.70;95586.03;1795394;80;21037;-69
2022/04/16 06:55:43;;;;;;;14.27;8.80;;;;;;;11.06;69.29;95588.13;1795403;80;21014;-69
2022/04/16 06:58:10;;;;;;;12.20;8.40;;;;;;;11.08;70.25;95578.41;1795498;80;21445;-69
2022/04/16 07:00:36;;;;;;;11.20;9.10;;;;;;;11.13;69.09;95584.46;1795630;80;21041;-69
2022/04/16 07:03:03;;;;;;;11.77;8.40;;;;;;;11.20;69.21;95582.11;1795429;80;21030;-69
2022/04/16 07:05:30;;;;;;;10.30;8.20;;;;;;;11.03;69.84;95587.73;1795312;80;21531;-69
2022/04/16 07:07:57;;;;;;;12.33;10.50;;;;;;;10.83;69.14;95580.67;1795346;80;20994;-70
2022/04/16 07:10:23;;;;;;;12.07;9.73;;;;;;;10.79;69.36;95591.75;1795323;80;21009;-70
2022/04/16 07:12:50;;;;;;;12.83;8.73;;;;;;;10.63;70.05;95587.65;1795531;80;20994;-70
2022/04/16 07:15:17;;;;;;;12.30;9.30;;;;;;;10.75;70.26;95591.38;1795593;80;21026;-69
2022/04/16 07:17:45;;;;;;;11.40;7.17;;;;;;;10.88;69.58;95583.23;1795174;80;21019;-69
2022/04/16 07:20:12;;;;;;;12.80;8.63;;;;;;;10.96;69.08;95590.53;1795674;80;21002;-69
2022/04/16 07:22:39;;;;;;;12.23;10.17;;;;;;;11.05;68.92;95588.58;1795062;80;21122;-69
2022/04/16 07:25:07;;;;;;;22.03;18.90;;;;;;;11.14;68.24;95590.17;1795066;80;21050;-69
2022/04/16 07:27:33;;;;;;;10.70;8.20;;;;;;;11.21;68.28;95591.80;1795485;80;20995;-69
2022/04/16 07:30:00;;;;;;;11.20;9.27;;;;;;;11.36;68.15;95592.34;1795392;80;21026;-69
2022/04/16 07:32:27;;;;;;;9.57;8.47;;;;;;;11.40;66.99;95592.71;1795226;80;21035;-69
2022/04/16 07:34:54;;;;;;;8.03;7.00;;;;;;;11.58;66.40;95588.33;1795504;80;20999;-69
2022/04/16 07:37:22;;;;;;;12.57;8.43;;;;;;;11.73;66.41;95580.97;1795207;80;20982;-69
2022/04/16 07:39:49;;;;;;;9.07;7.13;;;;;;;12.05;65.20;95581.09;1795027;80;21019;-69
2022/04/16 07:42:16;;;;;;;9.33;7.47;;;;;;;12.28;65.08;95580.52;1795597;80;21021;-69
2022/04/16 07:44:43;;;;;;;8.93;6.93;;;;;;;12.52;63.93;95579.03;1795598;80;21499;-69
2022/04/16 07:47:09;;;;;;;7.63;6.83;;;;;;;12.41;62.82;95586.36;1795557;80;20978;-69
2022/04/16 07:49:36;;;;;;;7.53;6.37;;;;;;;12.44;63.20;95588.05;1795261;80;21421;-70
2022/04/16 07:52:03;;;;;;;9.20;6.93;;;;;;;12.51;63.03;95587.86;1786879;80;21011;-69
2022/04/16 07:54:30;;;;;;;11.93;7.70;;;;;;;12.59;62.49;95593.41;1786959;80;20995;-69
2022/04/16 07:56:56;;;;;;;8.30;6.87;;;;;;;12.31;62.76;95600.73;1787321;80;21022;-69
2022/04/16 07:59:23;;;;;;;8.17;6.43;;;;;;;12.14;63.11;95594.53;1786920;80;21030;-69
2022/04/16 08:01:49;;;;;;;10.57;7.27;;;;;;;12.02;63.02;95594.83;1787286;80;20980;-70
2022/04/16 08:04:16;;;;;;;9.40;7.37;;;;;;;11.95;63.74;95596.77;1787143;80;21443;-69
2022/04/16 08:06:42;;;;;;;10.70;8.53;;;;;;;11.96;63.96;95594.53;1786460;80;21102;-69
2022/04/16 08:09:09;;;;;;;10.50;7.57;;;;;;;11.99;64.43;95592.27;1787006;80;20995;-69
2022/04/16 08:11:35;;;;;;;9.47;8.43;;;;;;;11.99;64.07;95590.48;1787343;80;21019;-69
2022/04/16 08:14:02;;;;;;;14.63;11.20;;;;;;;11.86;64.31;95599.59;1786408;80;21094;-69
2022/04/16 08:16:29;;;;;;;12.53;10.10;;;;;;;11.74;64.85;95609.13;1786994;80;21015;-69
2022/04/16 08:18:57;;;;;;;13.00;10.47;;;;;;;11.68;64.82;95603.07;1786872;80;21146;-69
2022/04/16 08:21:28;;;;;;;11.00;9.90;;;;;;;11.77;66.12;95611.69;1786943;80;21071;-68
2022/04/16 08:24:12;;;;;;;13.33;10.57;;;;;;;11.68;65.13;95607.49;1787030;80;21579;-69
2022/04/16 08:26:32;;;;;;;14.53;10.97;;;;;;;11.72;64.97;95602.56;1785451;80;20987;-69
2022/04/16 08:28:59;;;;;;;14.67;11.90;;;;;;;11.67;65.94;95606.62;1786789;80;21119;-69
2022/04/16 08:31:26;;;;;;;14.13;11.67;;;;;;;11.72;65.56;95611.82;1787108;80;21074;-69
2022/04/16 08:33:52;;;;;;;16.80;10.40;;;;;;;11.66;66.13;95621.19;1786855;80;21010;-69
2022/04/16 08:36:19;;;;;;;12.73;10.50;;;;;;;11.46;66.11;95621.20;1786414;80;20975;-69
2022/04/16 08:38:46;;;;;;;13.90;9.97;;;;;;;11.24;66.61;95622.09;1787095;80;21493;-69
2022/04/16 08:41:13;;;;;;;13.47;10.80;;;;;;;11.03;67.09;95621.20;1786809;80;21063;-69
2022/04/16 08:43:44;;;;;;;11.63;9.60;;;;;;;10.85;67.61;95623.75;1786800;80;21039;-69
2022/04/16 08:46:10;;;;;;;16.10;9.50;;;;;;;10.65;68.28;95618.84;1787052;80;21452;-69
2022/04/16 08:48:37;;;;;;;13.90;10.10;;;;;;;10.48;69.10;95611.69;1787227;80;20992;-69
2022/04/16 08:51:05;;;;;;;14.77;10.73;;;;;;;10.40;69.62;95619.73;1791162;80;21457;-69
2022/04/16 08:53:31;;;;;;;12.60;9.93;;;;;;;10.29;70.56;95619.92;1795432;80;20990;-69
2022/04/16 08:55:58;;;;;;;13.10;9.43;;;;;;;10.26;71.06;95613.81;1795258;80;21480;-69
2022/04/16 08:58:24;;;;;;;21.90;13.73;;;;;;;10.23;71.79;95616.48;1795649;80;20995;-69
2022/04/16 09:00:51;;;;;;;15.87;12.67;;;;;;;10.25;72.55;95615.55;1795493;80;20943;-69
2022/04/16 09:03:17;;;;;;;15.07;12.00;;;;;;;10.31;72.97;95626.51;1795515;80;20967;-69
2022/04/16 09:05:45;;;;;;;16.03;12.43;;;;;;;10.29;74.75;95627.84;1795669;80;21516;-69
2022/04/16 09:08:11;;;;;;;18.07;13.57;;;;;;;10.26;74.49;95633.59;1795524;80;20983;-68
2022/04/16 09:10:40;;;;;;;19.70;13.63;;;;;;;10.11;75.51;95634.25;1795709;80;21081;-69
2022/04/16 09:13:06;;;;;;;15.13;12.87;;;;;;;10.03;75.77;95641.84;1795171;80;21045;-69
2022/04/16 09:15:34;;;;;;;15.13;12.77;;;;;;;9.98;75.93;95639.31;1795860;80;21017;-69
2022/04/16 09:18:06;;;;;;;21.83;15.77;;;;;;;9.95;75.81;95646.81;1795100;80;21022;-69
2022/04/16 09:20:38;;;;;;;17.87;14.23;;;;;;;10.01;75.99;95651.56;1795590;80;21021;-69
2022/04/16 09:23:22;;;;;;;17.90;13.60;;;;;;;10.02;76.23;95640.98;1795409;80;21014;-69
2022/04/16 09:25:50;;;;;;;19.10;14.20;;;;;;;10.10;77.04;95632.49;1795506;80;20986;-69
2022/04/16 09:28:19;;;;;;;17.33;13.83;;;;;;;10.14;76.88;95638.61;1795512;80;21515;-69
2022/04/16 09:30:52;;;;;;;18.53;13.57;;;;;;;10.26;76.13;95634.45;1795515;80;21041;-69
2022/04/16 09:33:19;;;;;;;15.32;12.45;;;;;;;10.25;76.39;95630.52;1795778;80;20990;-69
2022/04/16 09:35:46;;;;;;;15.97;13.57;;;;;;;10.28;77.18;95627.43;1795538;80;21010;-69
2022/04/16 09:38:14;;;;;;;16.90;13.83;;;;;;;10.38;76.36;95626.37;1795373;80;20998;-69
2022/04/16 09:40:46;;;;;;;21.80;16.70;;;;;;;10.31;76.42;95632.64;1795620;80;21025;-69
2022/04/16 09:43:14;;;;;;;16.90;12.98;;;;;;;10.18;76.40;95639.86;1795428;80;21547;-69
2022/04/16 09:45:42;;;;;;;17.17;13.53;;;;;;;10.00;77.59;95653.31;1795359;80;21082;-68
2022/04/16 09:48:12;;;;;;;15.93;12.73;;;;;;;9.93;77.70;95656.95;1795610;80;21488;-68
2022/04/16 09:50:41;;;;;;;16.70;13.37;;;;;;;9.90;78.25;95648.66;1793625;80;21079;-69
2022/04/16 09:53:08;;;;;;;16.97;12.43;;;;;;;10.01;77.92;95647.16;1786927;80;21469;-68
2022/04/16 09:55:36;;;;;;;14.60;11.30;;;;;;;10.07;77.54;95639.59;1787177;80;20986;-69
2022/04/16 09:58:05;;;;;;;16.03;11.33;;;;;;;10.08;77.04;95638.69;1787261;80;20971;-69
2022/04/16 10:00:35;;;;;;;14.83;11.83;;;;;;;10.11;77.32;95637.34;1787078;80;22140;-69
2022/04/16 10:03:07;;;;;;;14.47;12.10;;;;;;;10.21;76.84;95631.48;1787177;80;20999;-69
2022/04/16 10:05:34;;;;;;;22.97;12.57;;;;;;;10.30;77.11;95635.30;1787322;80;21452;-69
2022/04/16 10:08:03;;;;;;;19.10;14.30;;;;;;;10.58;77.67;95627.77;1786975;80;21058;-69
2022/04/16 10:10:40;;;;;;;17.27;12.93;;;;;;;10.88;76.92;95636.02;1787234;80;21460;-69
2022/04/16 10:13:05;;;;;;;13.50;10.83;;;;;;;11.60;76.55;95630.59;1786021;80;21488;-69
2022/04/16 10:15:57;;;;;;;13.93;11.40;;;;;;;12.14;74.25;95623.63;1787124;80;20999;-69
2022/04/16 10:18:25;;;;;;;14.53;11.27;;;;;;;12.12;71.78;95622.36;1787341;80;21521;-69
2022/04/16 10:20:58;;;;;;;15.77;12.10;;;;;;;11.90;71.36;95629.92;1787059;80;21010;-69
2022/04/16 10:23:30;;;;;;;16.43;11.57;;;;;;;11.77;71.74;95628.44;1786567;80;21050;-69
2022/04/16 10:26:11;;;;;;;13.57;10.40;;;;;;;11.74;71.56;95619.69;1787481;80;21018;-69
2022/04/16 10:28:44;;;;;;;13.73;11.80;;;;;;;11.93;70.68;95613.58;1786802;80;21102;-69
2022/04/16 10:31:25;;;;;;;15.45;12.98;;;;;;;11.97;70.53;95607.30;1787310;80;20991;-69
2022/04/16 10:34:11;;;;;;;12.30;9.90;;;;;;;12.16;70.95;95608.59;1785207;80;21007;-69
2022/04/16 10:36:50;;;;;;;12.98;10.58;;;;;;;12.47;69.52;95610.04;1787162;80;21046;-69
2022/04/16 10:39:27;;;;;;;13.18;10.55;;;;;;;12.59;68.63;95607.97;1785262;80;21003;-69
2022/04/16 10:42:00;;;;;;;13.00;10.90;;;;;;;12.61;67.64;95607.02;1787101;80;20975;-69
2022/04/16 10:44:29;;;;;;;10.78;9.68;;;;;;;12.34;68.14;95612.56;1787379;80;21488;-69
2022/04/16 10:46:58;;;;;;;12.97;10.17;;;;;;;11.79;69.23;95625.31;1787138;80;20994;-69
2022/04/16 10:49:27;;;;;;;14.47;11.43;;;;;;;11.47;70.53;95622.06;1780169;80;21442;-69
2022/04/16 10:51:55;;;;;;;12.17;10.33;;;;;;;11.40;71.29;95626.59;1792250;80;21000;-69
2022/04/16 10:54:32;;;;;;;12.43;9.17;;;;;;;11.37;71.58;95624.03;1795403;80;20994;-69
2022/04/16 10:56:57;;;;;;;14.77;11.23;;;;;;;11.48;71.23;95623.33;1795431;80;21469;-69
2022/04/16 10:59:39;;;;;;;14.03;8.97;;;;;;;11.54;71.69;95622.35;1795412;80;20979;-69
2022/04/16 11:02:27;;;;;;;12.17;8.63;;;;;;;11.50;71.22;95622.45;1795460;80;20955;-68
2022/04/16 11:05:09;;;;;;;9.43;6.30;;;;;;;11.26;71.26;95625.58;1795564;80;21002;-68
2022/04/16 11:07:39;;;;;;;7.00;5.30;;;;;;;11.06;72.50;95640.94;1795383;80;20986;-68
2022/04/16 11:10:10;;;;;;;5.87;4.50;;;;;;;10.77;72.56;95653.38;1795428;80;21038;-68
2022/04/16 11:12:38;;;;;;;6.77;5.40;;;;;;;10.57;72.90;95662.52;1795419;80;20959;-68
2022/04/16 11:15:13;;;;;;;10.37;6.93;;;;;;;10.39;74.08;95653.61;1796107;80;21078;-69
2022/04/16 11:17:39;;;;;;;7.57;6.23;;;;;;;10.08;76.02;95659.78;1794959;80;21029;-69
2022/04/16 11:20:08;;;;;;;8.97;6.63;;;;;;;9.87;76.67;95663.17;1795491;80;21042;-69
2022/04/16 11:22:35;;;;;;;18.73;10.77;;;;;;;9.67;77.85;95662.59;1795433;80;21562;-69
2022/04/16 11:25:07;;;;;;;11.60;8.03;;;;;;;9.57;77.69;95652.62;1794999;80;20987;-69
2022/04/16 11:36:08;;;;;;;10.27;7.03;;;;;;;9.28;79.29;95667.05;1791344;80;20971;-69
2022/04/16 11:38:39;;;;;;;7.93;6.20;;;;;;;9.20;80.74;95668.05;1794190;80;21500;-69
2022/04/16 11:41:10;;;;;;;11.10;7.47;;;;;;;9.17;80.23;95675.54;1795389;80;21049;-68
2022/04/16 11:43:50;;;;;;;10.07;7.27;;;;;;;9.26;79.60;95673.23;1795574;80;21018;-68
2022/04/16 11:46:17;;;;;;;8.57;6.70;;;;;;;9.41;81.17;95680.06;1795486;80;21448;-68
2022/04/16 11:48:47;;;;;;;8.00;5.80;;;;;;;9.50;81.16;95688.73;1795368;80;21010;-68
2022/04/16 11:51:18;;;;;;;8.63;6.77;;;;;;;9.56;79.10;95679.00;1793176;80;20991;-68
2022/04/16 11:53:52;;;;;;;9.03;7.53;;;;;;;9.62;79.17;95681.54;1787059;80;20980;-69
2022/04/16 11:56:20;;;;;;;8.33;5.67;;;;;;;9.73;78.76;95680.96;1787062;80;21003;-68
2022/04/16 11:58:52;;;;;;;6.80;5.67;;;;;;;9.83;78.95;95680.39;1787007;80;20999;-69